Time;durP1;ratioP1;P1;durP2;ratioP2;P2;SDS_P1;SDS_P2;PMS_P1;PMS_P2;Temp;Humidity;BMP_temperature;BMP_pressure;BME280_temperature;BME280_humidity;BME280_pressure;Samples;Min_cycle;Max_cycle;Signal;HPM_P1;HPM_P2
2021/09/13 00:00:23;;;;;;;0.47;0.20;;;;;;;;;;2073474;28;20034;-64
2021/09/13 00:01:42;;;;;;;0.30;0.30;;;;;;;;;;2073777;28;20026;-64
2021/09/13 00:03:01;;;;;;;0.77;0.50;;;;;;;;;;2076702;28;20041;-64
2021/09/13 00:04:20;;;;;;;1.20;0.20;;;;;;;;;;2075074;28;20030;-64
2021/09/13 00:05:39;;;;;;;0.20;0.20;;;;;;;;;;2068899;28;20037;-64
2021/09/13 00:06:58;;;;;;;1.42;0.30;;;;;;;;;;2072430;28;20022;-65
2021/09/13 00:08:17;;;;;;;0.30;0.20;;;;;;;;;;2074991;28;20030;-64
2021/09/13 00:09:36;;;;;;;2.10;0.20;;;;;;;;;;2073572;28;20037;-64
2021/09/13 00:10:55;;;;;;;0.88;0.20;;;;;;;;;;2069290;28;20030;-64
2021/09/13 00:12:14;;;;;;;0.10;0.10;;;;;;;;;;2070305;28;20026;-64
2021/09/13 00:13:33;;;;;;;0.30;0.20;;;;;;;;;;2077982;28;20025;-65
2021/09/13 00:14:52;;;;;;;1.90;0.20;;;;;;;;;;2072116;28;20038;-64
2021/09/13 00:16:11;;;;;;;0.63;0.20;;;;;;;;;;2068670;28;20041;-64
2021/09/13 00:17:30;;;;;;;0.28;0.22;;;;;;;;;;2070215;28;20029;-64
2021/09/13 00:18:48;;;;;;;0.25;0.25;;;;;;;;;;2072540;28;20049;-64
2021/09/13 00:20:08;;;;;;;0.52;0.28;;;;;;;;;;2072964;28;20025;-64
2021/09/13 00:21:26;;;;;;;0.20;0.20;;;;;;;;;;2074135;28;20029;-64
2021/09/13 00:22:45;;;;;;;2.38;0.40;;;;;;;;;;2073900;28;20412;-65
2021/09/13 00:24:04;;;;;;;0.20;0.20;;;;;;;;;;2071451;28;20033;-65
2021/09/13 00:25:23;;;;;;;1.85;0.20;;;;;;;;;;2073494;28;20022;-64
2021/09/13 00:26:42;;;;;;;1.73;0.55;;;;;;;;;;2070330;28;20480;-65
2021/09/13 00:28:01;;;;;;;1.23;0.30;;;;;;;;;;2073447;28;20030;-64
2021/09/13 00:29:21;;;;;;;0.47;0.28;;;;;;;;;;2073288;28;20030;-65
2021/09/13 00:30:40;;;;;;;1.02;0.52;;;;;;;;;;2072677;28;20447;-65
2021/09/13 00:31:58;;;;;;;1.33;0.32;;;;;;;;;;2067571;28;20401;-64
2021/09/13 00:33:17;;;;;;;0.55;0.30;;;;;;;;;;2071837;28;20034;-65
2021/09/13 00:34:36;;;;;;;10.48;0.40;;;;;;;;;;2074264;28;20034;-64
2021/09/13 00:35:55;;;;;;;1.92;0.52;;;;;;;;;;2073232;28;20065;-64
2021/09/13 00:37:14;;;;;;;0.88;0.40;;;;;;;;;;2071339;28;20052;-65
2021/09/13 00:38:33;;;;;;;1.85;0.50;;;;;;;;;;2068440;28;20014;-65
2021/09/13 00:39:52;;;;;;;3.38;0.40;;;;;;;;;;2073229;28;20101;-65
2021/09/13 00:41:11;;;;;;;7.15;0.75;;;;;;;;;;2070178;28;20459;-65
2021/09/13 00:42:31;;;;;;;2.80;0.50;;;;;;;;;;2075517;28;20029;-65
2021/09/13 00:43:50;;;;;;;1.48;0.60;;;;;;;;;;2076988;28;20022;-65
2021/09/13 00:45:09;;;;;;;3.58;0.77;;;;;;;;;;2079470;28;20021;-65
2021/09/13 00:46:28;;;;;;;1.23;0.50;;;;;;;;;;2077672;28;20030;-65
2021/09/13 00:47:47;;;;;;;2.30;0.50;;;;;;;;;;2073529;28;20021;-66
2021/09/13 00:49:06;;;;;;;2.22;0.70;;;;;;;;;;2073989;28;20062;-65
2021/09/13 00:50:25;;;;;;;1.85;0.50;;;;;;;;;;2076659;28;20030;-65
2021/09/13 00:51:44;;;;;;;3.85;0.60;;;;;;;;;;2070806;28;20030;-65
2021/09/13 00:53:03;;;;;;;4.20;0.40;;;;;;;;;;2078558;28;20022;-65
2021/09/13 00:54:22;;;;;;;0.60;0.57;;;;;;;;;;2074707;28;20022;-65
2021/09/13 00:55:41;;;;;;;1.63;0.50;;;;;;;;;;2077586;28;20029;-65
2021/09/13 00:57:00;;;;;;;4.07;0.70;;;;;;;;;;2073450;28;20022;-65
2021/09/13 00:58:19;;;;;;;1.20;0.40;;;;;;;;;;2071085;28;20022;-65
2021/09/13 00:59:38;;;;;;;0.40;0.40;;;;;;;;;;2074737;28;20022;-65
2021/09/13 01:00:56;;;;;;;1.40;0.80;;;;;;;;;;2072713;28;20117;-66
2021/09/13 01:02:15;;;;;;;1.50;0.45;;;;;;;;;;2070656;28;20388;-65
2021/09/13 01:03:34;;;;;;;7.45;0.60;;;;;;;;;;2073298;28;20042;-66
2021/09/13 01:04:53;;;;;;;1.92;0.40;;;;;;;;;;2074632;28;20500;-66
2021/09/13 01:06:12;;;;;;;0.88;0.57;;;;;;;;;;2074514;28;20030;-65
2021/09/13 01:07:31;;;;;;;1.25;0.45;;;;;;;;;;2071415;28;20045;-66
2021/09/13 01:08:50;;;;;;;2.95;0.60;;;;;;;;;;2072161;28;20416;-65
2021/09/13 01:10:09;;;;;;;1.58;0.77;;;;;;;;;;2074905;28;20018;-65
2021/09/13 01:11:28;;;;;;;1.67;0.70;;;;;;;;;;2073849;28;20155;-65
2021/09/13 01:12:47;;;;;;;2.75;0.60;;;;;;;;;;2074373;28;20104;-65
2021/09/13 01:14:06;;;;;;;0.47;0.47;;;;;;;;;;2074880;28;20488;-65
2021/09/13 01:15:25;;;;;;;1.45;0.63;;;;;;;;;;2073338;28;20038;-65
2021/09/13 01:16:44;;;;;;;1.23;0.68;;;;;;;;;;2068914;28;20113;-65
2021/09/13 01:18:03;;;;;;;2.38;1.02;;;;;;;;;;2069240;28;20018;-65
2021/09/13 01:19:22;;;;;;;0.70;0.60;;;;;;;;;;2075592;28;20030;-65
2021/09/13 01:20:41;;;;;;;1.08;0.60;;;;;;;;;;2074825;28;20030;-65
2021/09/13 01:22:01;;;;;;;1.33;0.60;;;;;;;;;;2071881;28;20022;-65
2021/09/13 01:23:25;;;;;;;0.70;0.70;;;;;;;;;;2073264;28;20030;-65
2021/09/13 01:24:44;;;;;;;0.80;0.80;;;;;;;;;;2071764;28;20018;-65
2021/09/13 01:26:04;;;;;;;0.82;0.50;;;;;;;;;;2074727;28;20062;-65
2021/09/13 01:27:23;;;;;;;1.75;0.50;;;;;;;;;;2072977;28;20392;-65
2021/09/13 01:28:42;;;;;;;1.88;0.90;;;;;;;;;;2071957;28;20461;-65
2021/09/13 01:30:01;;;;;;;2.65;0.85;;;;;;;;;;2074244;28;20017;-65
2021/09/13 01:31:20;;;;;;;7.00;0.93;;;;;;;;;;2078030;28;20117;-65
2021/09/13 01:32:39;;;;;;;1.25;0.65;;;;;;;;;;2073243;28;20030;-65
2021/09/13 01:33:58;;;;;;;3.40;0.93;;;;;;;;;;2073425;28;20396;-65
2021/09/13 01:35:17;;;;;;;2.08;0.60;;;;;;;;;;2070388;28;20112;-65
2021/09/13 01:36:35;;;;;;;2.53;0.70;;;;;;;;;;2073469;28;20030;-66
2021/09/13 01:37:54;;;;;;;2.05;0.65;;;;;;;;;;2071543;28;20022;-65
2021/09/13 01:39:14;;;;;;;3.72;0.80;;;;;;;;;;2073924;28;20077;-65
2021/09/13 01:40:33;;;;;;;1.45;0.60;;;;;;;;;;2073944;28;20022;-65
2021/09/13 01:41:52;;;;;;;3.22;0.82;;;;;;;;;;2073229;28;20484;-65
2021/09/13 01:43:10;;;;;;;0.95;0.82;;;;;;;;;;2078257;28;20487;-65
2021/09/13 01:44:29;;;;;;;1.45;0.77;;;;;;;;;;2073416;28;20100;-65
2021/09/13 01:45:48;;;;;;;2.47;0.82;;;;;;;;;;2073410;28;20516;-65
2021/09/13 01:47:07;;;;;;;1.85;0.93;;;;;;;;;;2072587;28;20064;-65
2021/09/13 01:48:26;;;;;;;0.77;0.63;;;;;;;;;;2069442;28;20037;-67
2021/09/13 01:49:45;;;;;;;1.50;1.20;;;;;;;;;;2073940;28;20337;-65
2021/09/13 01:51:04;;;;;;;0.80;0.80;;;;;;;;;;2073360;28;20033;-65
2021/09/13 01:52:23;;;;;;;1.77;0.80;;;;;;;;;;2073160;28;20030;-65
2021/09/13 01:53:42;;;;;;;3.85;1.08;;;;;;;;;;2076096;28;20116;-65
2021/09/13 01:55:01;;;;;;;5.43;1.00;;;;;;;;;;2076130;28;20030;-65
2021/09/13 01:56:20;;;;;;;2.25;0.90;;;;;;;;;;2073867;28;20396;-65
2021/09/13 01:57:39;;;;;;;0.95;0.80;;;;;;;;;;2072750;28;21224;-65
2021/09/13 01:58:58;;;;;;;2.15;1.05;;;;;;;;;;2073575;28;20050;-65
2021/09/13 02:00:17;;;;;;;7.22;1.20;;;;;;;;;;2077116;28;20065;-65
2021/09/13 02:01:36;;;;;;;2.47;0.90;;;;;;;;;;2073748;28;20125;-65
2021/09/13 02:02:55;;;;;;;4.18;1.00;;;;;;;;;;2072650;28;20117;-65
2021/09/13 02:04:14;;;;;;;2.92;1.05;;;;;;;;;;2071532;28;20019;-65
2021/09/13 02:05:33;;;;;;;6.55;1.10;;;;;;;;;;2076933;28;20029;-65
2021/09/13 02:06:51;;;;;;;4.15;1.10;;;;;;;;;;2075133;28;20026;-65
2021/09/13 02:08:10;;;;;;;2.28;1.10;;;;;;;;;;2072526;28;20065;-65
2021/09/13 02:09:29;;;;;;;2.42;1.00;;;;;;;;;;2071291;28;20022;-65
2021/09/13 02:10:51;;;;;;;1.60;0.82;;;;;;;;;;2076688;28;20034;-65
2021/09/13 02:12:10;;;;;;;5.95;0.90;;;;;;;;;;2070107;28;20107;-65
2021/09/13 02:13:29;;;;;;;3.10;0.90;;;;;;;;;;2078384;28;20038;-66
2021/09/13 02:14:48;;;;;;;2.10;0.90;;;;;;;;;;2074794;28;20480;-65
2021/09/13 02:16:07;;;;;;;1.10;0.70;;;;;;;;;;2076645;28;20046;-65
2021/09/13 02:17:27;;;;;;;1.83;1.10;;;;;;;;;;2071926;28;20042;-65
2021/09/13 02:18:46;;;;;;;4.93;1.15;;;;;;;;;;2070859;28;20294;-67
2021/09/13 02:20:05;;;;;;;1.25;1.05;;;;;;;;;;2072385;28;20476;-66
2021/09/13 02:21:23;;;;;;;2.67;0.80;;;;;;;;;;2074970;28;20033;-66
2021/09/13 02:22:42;;;;;;;0.80;0.80;;;;;;;;;;2073858;28;20038;-65
2021/09/13 02:24:01;;;;;;;3.80;1.13;;;;;;;;;;2071307;28;20030;-65
2021/09/13 02:25:20;;;;;;;2.72;0.98;;;;;;;;;;2072570;28;20034;-65
2021/09/13 02:26:39;;;;;;;5.32;1.00;;;;;;;;;;2070160;28;20030;-66
2021/09/13 02:27:58;;;;;;;3.53;1.02;;;;;;;;;;2070448;28;20030;-65
2021/09/13 02:29:16;;;;;;;1.77;1.10;;;;;;;;;;2074035;28;20034;-66
2021/09/13 02:30:35;;;;;;;1.77;1.15;;;;;;;;;;2071565;28;20034;-65
2021/09/13 02:31:54;;;;;;;2.20;0.90;;;;;;;;;;2074982;28;20042;-66
2021/09/13 02:33:13;;;;;;;3.50;1.05;;;;;;;;;;2073408;28;20100;-66
2021/09/13 02:34:32;;;;;;;4.97;1.20;;;;;;;;;;2071043;28;20022;-65
2021/09/13 02:35:51;;;;;;;1.58;0.73;;;;;;;;;;2074061;28;20025;-65
2021/09/13 02:37:10;;;;;;;1.73;1.10;;;;;;;;;;2072946;28;20029;-65
2021/09/13 02:38:29;;;;;;;1.50;0.95;;;;;;;;;;2073726;28;20034;-65
2021/09/13 02:39:48;;;;;;;2.10;0.80;;;;;;;;;;2072720;28;20396;-66
2021/09/13 02:41:07;;;;;;;3.90;0.93;;;;;;;;;;2075480;28;20555;-65
2021/09/13 02:42:26;;;;;;;1.08;0.98;;;;;;;;;;2070433;28;20574;-65
2021/09/13 02:43:45;;;;;;;2.35;1.30;;;;;;;;;;2076679;28;20045;-68
2021/09/13 02:45:04;;;;;;;2.28;1.02;;;;;;;;;;2069453;28;20046;-69
2021/09/13 02:46:23;;;;;;;3.00;0.93;;;;;;;;;;2073575;28;20037;-68
2021/09/13 02:47:42;;;;;;;1.35;1.00;;;;;;;;;;2073227;28;20107;-69
2021/09/13 02:49:01;;;;;;;1.90;0.88;;;;;;;;;;2073406;28;20492;-69
2021/09/13 02:50:20;;;;;;;8.93;1.15;;;;;;;;;;2071960;28;20472;-69
2021/09/13 02:51:39;;;;;;;2.55;0.98;;;;;;;;;;2070863;28;20026;-69
2021/09/13 02:52:58;;;;;;;2.63;1.00;;;;;;;;;;2072677;28;20018;-68
2021/09/13 02:54:17;;;;;;;2.13;0.90;;;;;;;;;;2070783;28;20026;-69
2021/09/13 02:55:36;;;;;;;2.75;1.00;;;;;;;;;;2072380;28;20026;-69
2021/09/13 02:56:55;;;;;;;1.20;0.70;;;;;;;;;;2071239;28;20022;-69
2021/09/13 02:58:13;;;;;;;4.80;1.45;;;;;;;;;;2074066;28;20029;-69
2021/09/13 02:59:32;;;;;;;1.92;0.95;;;;;;;;;;2072742;28;20025;-68
2021/09/13 03:00:51;;;;;;;2.28;0.95;;;;;;;;;;2071514;28;20528;-68
2021/09/13 03:02:11;;;;;;;1.38;0.85;;;;;;;;;;2073157;28;20038;-69
2021/09/13 03:03:29;;;;;;;7.60;1.55;;;;;;;;;;2074929;28;20045;-68
2021/09/13 03:04:49;;;;;;;3.55;1.08;;;;;;;;;;2075222;28;20492;-69
2021/09/13 03:06:09;;;;;;;1.67;0.80;;;;;;;;;;2076615;28;20037;-69
2021/09/13 03:07:28;;;;;;;4.40;1.48;;;;;;;;;;2069893;28;20428;-69
2021/09/13 03:08:47;;;;;;;1.75;0.77;;;;;;;;;;2066983;28;20026;-69
2021/09/13 03:10:07;;;;;;;1.25;0.82;;;;;;;;;;2072771;28;20029;-69
2021/09/13 03:11:26;;;;;;;0.75;0.68;;;;;;;;;;2069800;28;20025;-69
2021/09/13 03:12:45;;;;;;;6.78;1.17;;;;;;;;;;2072220;28;20525;-69
2021/09/13 03:14:04;;;;;;;2.38;0.63;;;;;;;;;;2071465;28;20034;-69
2021/09/13 03:15:22;;;;;;;3.00;0.95;;;;;;;;;;2070898;28;20030;-69
2021/09/13 03:16:41;;;;;;;3.05;0.60;;;;;;;;;;2071883;28;20415;-69
2021/09/13 03:18:00;;;;;;;1.85;0.77;;;;;;;;;;2069486;28;20018;-69
2021/09/13 03:19:19;;;;;;;2.03;0.60;;;;;;;;;;2073253;28;20025;-68
2021/09/13 03:20:38;;;;;;;1.02;0.70;;;;;;;;;;2074202;28;20472;-68
2021/09/13 03:21:57;;;;;;;1.63;0.77;;;;;;;;;;2070146;28;20031;-68
2021/09/13 03:23:16;;;;;;;2.45;0.90;;;;;;;;;;2071397;28;20037;-69
2021/09/13 03:24:35;;;;;;;1.63;1.00;;;;;;;;;;2073720;28;20018;-68
2021/09/13 03:25:54;;;;;;;1.95;0.68;;;;;;;;;;2077928;28;20029;-68
2021/09/13 03:27:13;;;;;;;2.03;1.08;;;;;;;;;;2073658;28;20061;-69
2021/09/13 03:28:34;;;;;;;2.60;0.80;;;;;;;;;;2073644;28;20488;-68
2021/09/13 03:29:53;;;;;;;0.88;0.88;;;;;;;;;;2069513;28;22023;-68
2021/09/13 03:31:12;;;;;;;4.15;1.10;;;;;;;;;;2069596;28;20467;-68
2021/09/13 03:32:31;;;;;;;3.60;1.20;;;;;;;;;;2074196;28;20097;-68
2021/09/13 03:33:49;;;;;;;4.88;0.70;;;;;;;;;;2074966;28;20025;-68
2021/09/13 03:35:09;;;;;;;19.92;1.52;;;;;;;;;;2072058;28;20030;-69
2021/09/13 03:36:27;;;;;;;1.70;0.93;;;;;;;;;;2073497;28;20065;-68
2021/09/13 03:37:46;;;;;;;3.70;1.00;;;;;;;;;;2075464;28;20386;-69
2021/09/13 03:39:06;;;;;;;2.22;0.90;;;;;;;;;;2073707;28;20038;-68
2021/09/13 03:40:25;;;;;;;8.77;1.10;;;;;;;;;;2070792;28;20061;-69
2021/09/13 03:41:44;;;;;;;4.10;0.80;;;;;;;;;;2073551;28;20030;-69
2021/09/13 03:43:05;;;;;;;3.15;1.00;;;;;;;;;;2073702;28;20033;-69
2021/09/13 03:44:24;;;;;;;1.73;1.15;;;;;;;;;;2069887;28;20026;-69
2021/09/13 03:45:43;;;;;;;1.98;0.93;;;;;;;;;;2076698;28;20069;-69
2021/09/13 03:47:02;;;;;;;2.33;0.93;;;;;;;;;;2073929;28;20026;-69
2021/09/13 03:48:22;;;;;;;2.10;0.65;;;;;;;;;;2072741;28;20026;-69
2021/09/13 03:49:41;;;;;;;5.35;1.10;;;;;;;;;;2072693;28;20459;-68
2021/09/13 03:51:00;;;;;;;3.15;1.00;;;;;;;;;;2070157;28;20022;-68
2021/09/13 03:52:19;;;;;;;1.35;0.98;;;;;;;;;;2073350;28;20384;-68
2021/09/13 03:53:38;;;;;;;1.67;1.02;;;;;;;;;;2074054;28;20396;-69
2021/09/13 03:54:57;;;;;;;1.27;0.70;;;;;;;;;;2073607;28;20480;-69
2021/09/13 03:56:15;;;;;;;1.23;0.93;;;;;;;;;;2077359;28;20033;-68
2021/09/13 03:57:37;;;;;;;2.47;0.80;;;;;;;;;;2073342;28;20022;-68
2021/09/13 03:58:56;;;;;;;2.08;1.17;;;;;;;;;;2067654;28;20105;-69
2021/09/13 04:00:15;;;;;;;2.47;1.00;;;;;;;;;;2071345;28;20488;-68
2021/09/13 04:01:34;;;;;;;2.95;0.82;;;;;;;;;;2070418;28;20030;-69
2021/09/13 04:02:53;;;;;;;1.83;0.75;;;;;;;;;;2070279;28;20042;-68
2021/09/13 04:04:15;;;;;;;2.90;0.95;;;;;;;;;;2069789;28;20030;-68
2021/09/13 04:05:34;;;;;;;8.55;1.27;;;;;;;;;;2067793;28;20034;-69
2021/09/13 04:10:26;;;;;;;4.82;1.52;;;;;;;;;;2053791;28;20030;-68
2021/09/13 04:11:54;;;;;;;0.90;0.70;;;;;;;;;;2073236;28;20014;-69
2021/09/13 04:13:13;;;;;;;2.92;0.77;;;;;;;;;;2071040;28;20532;-68
2021/09/13 04:14:32;;;;;;;3.47;1.08;;;;;;;;;;2069515;28;20037;-68
2021/09/13 04:15:52;;;;;;;1.13;0.90;;;;;;;;;;2070057;28;20026;-69
2021/09/13 04:17:11;;;;;;;2.00;0.95;;;;;;;;;;2069821;28;20388;-69
2021/09/13 04:18:30;;;;;;;1.15;0.95;;;;;;;;;;2072037;28;20022;-68
2021/09/13 04:19:48;;;;;;;6.28;1.25;;;;;;;;;;2075318;28;20026;-69
2021/09/13 04:21:07;;;;;;;2.80;0.75;;;;;;;;;;2067606;28;20488;-69
2021/09/13 04:22:26;;;;;;;1.48;0.90;;;;;;;;;;2070685;28;20042;-68
2021/09/13 04:23:45;;;;;;;1.88;1.00;;;;;;;;;;2073023;28;20109;-68
2021/09/13 04:25:05;;;;;;;2.70;1.17;;;;;;;;;;2070496;28;20022;-69
2021/09/13 04:26:23;;;;;;;5.60;1.20;;;;;;;;;;2071123;28;20045;-69
2021/09/13 04:27:42;;;;;;;1.50;1.10;;;;;;;;;;2073088;28;20487;-69
2021/09/13 04:29:04;;;;;;;6.55;1.15;;;;;;;;;;2071613;28;20030;-69
2021/09/13 04:30:25;;;;;;;6.95;1.10;;;;;;;;;;2073296;28;20030;-69
2021/09/13 04:31:44;;;;;;;6.00;1.55;;;;;;;;;;2073179;28;20385;-69
2021/09/13 04:33:02;;;;;;;3.28;0.90;;;;;;;;;;2070770;28;20372;-69
2021/09/13 04:34:21;;;;;;;4.72;0.85;;;;;;;;;;2068134;28;20105;-69
2021/09/13 04:35:40;;;;;;;3.05;0.90;;;;;;;;;;2076314;28;20483;-68
2021/09/13 04:36:59;;;;;;;1.65;0.85;;;;;;;;;;2072812;28;20033;-69
2021/09/13 04:38:18;;;;;;;1.63;1.35;;;;;;;;;;2072554;28;20065;-69
2021/09/13 04:39:37;;;;;;;2.30;0.98;;;;;;;;;;2073399;28;20018;-68
2021/09/13 04:40:56;;;;;;;5.03;1.33;;;;;;;;;;2068239;28;20034;-69
2021/09/13 04:42:15;;;;;;;1.95;1.00;;;;;;;;;;2071892;28;20022;-68
2021/09/13 04:43:34;;;;;;;2.72;1.30;;;;;;;;;;2069817;28;20113;-69
2021/09/13 04:44:53;;;;;;;4.90;0.95;;;;;;;;;;2072619;28;20026;-68
2021/09/13 04:46:12;;;;;;;1.05;0.63;;;;;;;;;;2070609;28;20026;-69
2021/09/13 04:47:30;;;;;;;2.05;1.13;;;;;;;;;;2071922;28;20988;-69
2021/09/13 04:48:49;;;;;;;1.98;1.10;;;;;;;;;;2069770;28;20436;-69
2021/09/13 04:50:08;;;;;;;1.48;1.08;;;;;;;;;;2075905;28;20431;-69
2021/09/13 04:51:27;;;;;;;1.27;0.70;;;;;;;;;;2073229;28;20030;-69
2021/09/13 04:52:46;;;;;;;6.40;1.02;;;;;;;;;;2070752;28;20018;-67
2021/09/13 04:54:05;;;;;;;2.33;0.98;;;;;;;;;;2070182;28;20030;-69
2021/09/13 04:55:24;;;;;;;2.15;1.13;;;;;;;;;;2072759;28;20773;-69
2021/09/13 04:56:43;;;;;;;4.55;0.82;;;;;;;;;;2073307;28;20026;-69
2021/09/13 04:58:04;;;;;;;4.22;0.95;;;;;;;;;;2073258;28;20096;-69
2021/09/13 04:59:23;;;;;;;4.93;1.05;;;;;;;;;;2073080;28;20030;-69
2021/09/13 05:00:42;;;;;;;3.38;0.90;;;;;;;;;;2071828;28;20030;-69
2021/09/13 05:02:01;;;;;;;3.70;1.02;;;;;;;;;;2071347;28;20034;-69
2021/09/13 05:03:20;;;;;;;1.52;0.70;;;;;;;;;;2053528;28;20043;-69
2021/09/13 05:04:39;;;;;;;1.83;0.95;;;;;;;;;;2057050;28;20030;-69
2021/09/13 05:05:58;;;;;;;5.10;1.20;;;;;;;;;;2059605;28;20034;-69
2021/09/13 05:07:20;;;;;;;1.55;0.82;;;;;;;;;;2051659;28;20023;-69
2021/09/13 05:08:39;;;;;;;1.98;1.27;;;;;;;;;;2056415;28;20433;-68
2021/09/13 05:09:58;;;;;;;1.23;0.90;;;;;;;;;;2057844;28;20484;-69
2021/09/13 05:11:16;;;;;;;1.48;0.70;;;;;;;;;;2051245;28;20426;-69
2021/09/13 05:12:35;;;;;;;2.40;1.00;;;;;;;;;;2051126;28;20023;-69
2021/09/13 05:13:54;;;;;;;1.83;0.80;;;;;;;;;;2052416;28;20026;-70
2021/09/13 05:15:13;;;;;;;3.92;0.93;;;;;;;;;;2056949;28;20026;-69
2021/09/13 05:16:33;;;;;;;1.10;0.90;;;;;;;;;;2057404;28;20030;-69
2021/09/13 05:17:52;;;;;;;3.83;1.10;;;;;;;;;;2056344;28;20026;-69
2021/09/13 05:19:11;;;;;;;2.17;0.70;;;;;;;;;;2055283;28;20030;-70
2021/09/13 05:20:31;;;;;;;3.67;0.85;;;;;;;;;;2060364;28;20062;-69
2021/09/13 05:21:49;;;;;;;3.10;1.05;;;;;;;;;;2056329;28;20035;-70
2021/09/13 05:23:08;;;;;;;3.53;0.80;;;;;;;;;;2055365;28;20031;-69
2021/09/13 05:24:27;;;;;;;2.17;1.23;;;;;;;;;;2057103;28;20414;-68
2021/09/13 05:25:46;;;;;;;0.90;0.77;;;;;;;;;;2055176;28;20117;-70
2021/09/13 05:27:05;;;;;;;4.78;1.27;;;;;;;;;;2055022;28;20027;-69
2021/09/13 05:28:24;;;;;;;1.55;0.57;;;;;;;;;;2055583;28;20378;-69
2021/09/13 05:29:45;;;;;;;3.40;1.02;;;;;;;;;;2057945;28;20023;-69
2021/09/13 05:31:04;;;;;;;1.98;1.13;;;;;;;;;;2058545;28;20031;-69
2021/09/13 05:32:23;;;;;;;4.75;1.30;;;;;;;;;;2057681;28;20030;-69
2021/09/13 05:33:42;;;;;;;2.00;0.80;;;;;;;;;;2054370;28;20031;-70
2021/09/13 05:35:01;;;;;;;8.75;1.52;;;;;;;;;;2055855;28;20035;-70
2021/09/13 05:36:20;;;;;;;2.25;1.00;;;;;;;;;;2055725;28;20035;-69
2021/09/13 05:37:39;;;;;;;4.40;1.27;;;;;;;;;;2060090;28;20500;-69
2021/09/13 05:38:58;;;;;;;4.85;1.08;;;;;;;;;;2052742;28;20426;-68
2021/09/13 05:40:16;;;;;;;2.45;0.98;;;;;;;;;;2060744;28;20409;-70
2021/09/13 05:41:35;;;;;;;2.53;0.90;;;;;;;;;;2057269;28;20039;-70
2021/09/13 05:42:55;;;;;;;4.30;1.10;;;;;;;;;;2055986;28;20054;-69
2021/09/13 05:44:14;;;;;;;3.38;1.00;;;;;;;;;;2058116;28;21180;-69
2021/09/13 05:45:33;;;;;;;5.13;1.00;;;;;;;;;;2057403;28;20038;-69
2021/09/13 05:46:52;;;;;;;2.85;0.93;;;;;;;;;;2056336;28;20026;-69
2021/09/13 05:48:11;;;;;;;5.20;1.10;;;;;;;;;;2061359;28;20038;-70
2021/09/13 05:49:30;;;;;;;1.02;0.70;;;;;;;;;;2056119;28;20031;-70
2021/09/13 05:50:48;;;;;;;4.20;1.13;;;;;;;;;;2056440;28;20035;-69
2021/09/13 05:52:07;;;;;;;1.85;0.95;;;;;;;;;;2056679;28;20058;-69
2021/09/13 05:53:26;;;;;;;4.55;1.00;;;;;;;;;;2053838;28;20433;-68
2021/09/13 05:54:45;;;;;;;3.45;0.80;;;;;;;;;;2059422;28;20031;-70
2021/09/13 05:56:04;;;;;;;1.20;0.90;;;;;;;;;;2058685;28;20027;-69
2021/09/13 05:57:23;;;;;;;8.93;1.50;;;;;;;;;;2055436;28;20038;-70
2021/09/13 05:58:41;;;;;;;3.33;0.80;;;;;;;;;;2059060;28;20034;-68
2021/09/13 06:00:00;;;;;;;4.38;1.48;;;;;;;;;;2058217;28;20031;-70
2021/09/13 06:01:19;;;;;;;4.97;0.70;;;;;;;;;;2061605;28;20054;-70
2021/09/13 06:02:39;;;;;;;9.68;1.20;;;;;;;;;;2061646;28;20128;-70
2021/09/13 06:03:57;;;;;;;3.22;0.90;;;;;;;;;;2073819;28;20077;-69
2021/09/13 06:05:17;;;;;;;4.80;1.00;;;;;;;;;;2074894;28;20054;-69
2021/09/13 06:06:35;;;;;;;4.95;0.70;;;;;;;;;;2070501;28;20501;-69
2021/09/13 06:07:55;;;;;;;9.13;1.52;;;;;;;;;;2072353;28;20029;-70
2021/09/13 06:09:14;;;;;;;2.03;0.65;;;;;;;;;;2074169;28;20049;-70
2021/09/13 06:10:33;;;;;;;7.28;1.20;;;;;;;;;;2072798;28;20030;-70
2021/09/13 06:11:52;;;;;;;4.22;0.82;;;;;;;;;;2073622;28;20030;-69
2021/09/13 06:13:11;;;;;;;5.78;1.35;;;;;;;;;;2073391;28;20069;-70
2021/09/13 06:14:30;;;;;;;5.65;1.38;;;;;;;;;;2072728;28;20033;-70
2021/09/13 06:15:49;;;;;;;3.42;1.13;;;;;;;;;;2076567;28;20579;-69
2021/09/13 06:17:08;;;;;;;4.00;0.90;;;;;;;;;;2074166;28;20113;-70
2021/09/13 06:18:27;;;;;;;1.48;0.77;;;;;;;;;;2073035;28;20105;-70
2021/09/13 06:19:47;;;;;;;2.25;0.82;;;;;;;;;;2073965;28;20030;-70
2021/09/13 06:21:06;;;;;;;2.38;1.10;;;;;;;;;;2077686;28;20511;-70
2021/09/13 06:22:25;;;;;;;4.68;1.58;;;;;;;;;;2075990;28;20022;-70
2021/09/13 06:23:44;;;;;;;3.22;0.90;;;;;;;;;;2072314;28;20026;-70
2021/09/13 06:25:04;;;;;;;2.30;1.08;;;;;;;;;;2069431;28;20030;-70
2021/09/13 06:26:23;;;;;;;3.63;1.02;;;;;;;;;;2075713;28;20026;-69
2021/09/13 06:27:42;;;;;;;5.75;1.10;;;;;;;;;;2069744;28;20026;-70
2021/09/13 06:29:01;;;;;;;4.68;1.05;;;;;;;;;;2073359;28;20030;-70
2021/09/13 06:30:20;;;;;;;3.60;1.08;;;;;;;;;;2070547;28;20110;-69
2021/09/13 06:31:39;;;;;;;2.15;0.93;;;;;;;;;;2073282;28;20084;-70
2021/09/13 06:32:58;;;;;;;1.90;0.80;;;;;;;;;;2071235;28;20050;-70
2021/09/13 06:34:18;;;;;;;1.80;0.60;;;;;;;;;;2073472;28;20467;-70
2021/09/13 06:35:37;;;;;;;3.50;1.10;;;;;;;;;;2072228;28;20030;-70
2021/09/13 06:36:55;;;;;;;6.82;1.30;;;;;;;;;;2072487;28;20034;-70
2021/09/13 06:38:15;;;;;;;1.95;0.85;;;;;;;;;;2083850;28;20029;-71
2021/09/13 06:39:33;;;;;;;0.95;0.80;;;;;;;;;;2069329;28;20026;-71
2021/09/13 06:40:52;;;;;;;5.93;1.35;;;;;;;;;;2075735;28;20061;-70
2021/09/13 06:42:11;;;;;;;5.25;1.30;;;;;;;;;;2074940;28;20022;-71
2021/09/13 06:43:30;;;;;;;2.95;1.00;;;;;;;;;;2073206;28;20022;-70
2021/09/13 06:44:49;;;;;;;6.07;1.17;;;;;;;;;;2073523;28;20430;-70
2021/09/13 06:46:11;;;;;;;8.55;1.50;;;;;;;;;;2072307;28;20030;-70
2021/09/13 06:48:49;;;;;;;0.93;0.68;;;;;;;;;;2073490;28;20105;-69
2021/09/13 06:50:08;;;;;;;3.67;1.20;;;;;;;;;;2074364;28;20030;-71
2021/09/13 06:51:27;;;;;;;0.95;0.63;;;;;;;;;;2072919;28;20026;-70
2021/09/13 06:52:47;;;;;;;3.03;0.90;;;;;;;;;;2071819;28;20022;-71
2021/09/13 06:54:06;;;;;;;4.32;0.77;;;;;;;;;;2070999;28;20057;-70
2021/09/13 06:55:26;;;;;;;4.90;0.80;;;;;;;;;;2073498;28;20026;-70
2021/09/13 06:56:45;;;;;;;3.13;1.02;;;;;;;;;;2073668;28;20034;-70
2021/09/13 06:58:07;;;;;;;1.67;0.82;;;;;;;;;;2069571;28;20034;-71
2021/09/13 06:59:26;;;;;;;1.10;1.00;;;;;;;;;;2073679;28;20034;-71
2021/09/13 07:00:45;;;;;;;1.08;0.73;;;;;;;;;;2073668;28;20021;-71
2021/09/13 07:02:06;;;;;;;3.28;0.88;;;;;;;;;;2073400;28;20034;-71
2021/09/13 07:03:25;;;;;;;3.03;1.08;;;;;;;;;;2071474;28;20050;-71
2021/09/13 07:04:44;;;;;;;2.15;0.52;;;;;;;;;;2068680;28;20041;-70
2021/09/13 07:06:03;;;;;;;2.33;0.70;;;;;;;;;;2072305;28;20485;-70
2021/09/13 07:07:22;;;;;;;1.05;0.68;;;;;;;;;;2072257;28;20488;-71
2021/09/13 07:08:41;;;;;;;0.90;0.70;;;;;;;;;;2070642;28;20026;-70
2021/09/13 07:10:00;;;;;;;1.23;0.73;;;;;;;;;;2074350;28;20026;-70
2021/09/13 07:11:19;;;;;;;1.98;0.70;;;;;;;;;;2073704;28;20053;-71
2021/09/13 07:12:38;;;;;;;4.00;0.80;;;;;;;;;;2072310;28;20025;-70
2021/09/13 07:13:56;;;;;;;1.38;0.80;;;;;;;;;;2069330;28;20034;-70
2021/09/13 07:15:16;;;;;;;7.85;1.05;;;;;;;;;;2073394;28;20141;-71
2021/09/13 07:16:34;;;;;;;3.42;0.82;;;;;;;;;;2073666;28;20034;-71
2021/09/13 07:17:53;;;;;;;1.63;0.60;;;;;;;;;;2073375;28;20033;-71
2021/09/13 07:19:12;;;;;;;2.90;0.65;;;;;;;;;;2078078;28;20480;-70
2021/09/13 07:20:31;;;;;;;0.68;0.63;;;;;;;;;;2073588;28;20026;-71
2021/09/13 07:21:50;;;;;;;1.40;0.63;;;;;;;;;;2073565;28;20022;-70
2021/09/13 07:23:09;;;;;;;1.23;0.75;;;;;;;;;;2068471;28;20026;-70
2021/09/13 07:24:28;;;;;;;1.65;0.80;;;;;;;;;;2070442;28;20033;-69
2021/09/13 07:25:47;;;;;;;0.90;0.75;;;;;;;;;;2073585;28;20492;-70
2021/09/13 07:27:06;;;;;;;1.98;0.75;;;;;;;;;;2073009;28;20575;-70
2021/09/13 07:28:25;;;;;;;1.13;0.70;;;;;;;;;;2075051;28;20100;-70
2021/09/13 07:29:44;;;;;;;2.25;0.75;;;;;;;;;;2073627;28;20025;-71
2021/09/13 07:31:03;;;;;;;1.08;0.80;;;;;;;;;;2072069;28;20022;-69
2021/09/13 07:32:21;;;;;;;4.30;0.85;;;;;;;;;;2073808;28;20030;-69
2021/09/13 07:33:40;;;;;;;2.17;0.65;;;;;;;;;;2070233;28;20038;-69
2021/09/13 07:34:59;;;;;;;1.45;0.73;;;;;;;;;;2073352;28;20037;-69
2021/09/13 07:36:18;;;;;;;0.60;0.50;;;;;;;;;;2075602;28;20030;-72
2021/09/13 07:37:38;;;;;;;4.28;0.73;;;;;;;;;;2074881;28;20439;-70
2021/09/13 07:38:57;;;;;;;5.97;0.73;;;;;;;;;;2069640;28;20037;-69
2021/09/13 07:40:16;;;;;;;1.65;1.00;;;;;;;;;;2069937;28;20034;-70
2021/09/13 07:41:35;;;;;;;11.13;1.20;;;;;;;;;;2071906;28;20034;-71
2021/09/13 07:42:54;;;;;;;4.53;0.60;;;;;;;;;;2075242;28;20397;-69
2021/09/13 07:44:13;;;;;;;3.50;1.05;;;;;;;;;;2069280;28;20029;-70
2021/09/13 07:45:32;;;;;;;3.13;0.57;;;;;;;;;;2069423;28;20109;-70
2021/09/13 07:46:52;;;;;;;0.95;0.68;;;;;;;;;;2076133;28;20030;-70
2021/09/13 07:48:11;;;;;;;3.38;0.63;;;;;;;;;;2073607;28;20105;-70
2021/09/13 07:49:30;;;;;;;0.90;0.73;;;;;;;;;;2073787;28;20360;-70
2021/09/13 07:50:49;;;;;;;2.10;0.63;;;;;;;;;;2074467;28;20026;-70
2021/09/13 07:52:07;;;;;;;0.80;0.50;;;;;;;;;;2070760;28;20034;-69
2021/09/13 07:53:26;;;;;;;0.47;0.47;;;;;;;;;;2069667;28;20107;-70
2021/09/13 07:54:45;;;;;;;0.70;0.70;;;;;;;;;;2068297;28;20026;-70
2021/09/13 07:56:04;;;;;;;0.88;0.40;;;;;;;;;;2073245;28;20026;-69
2021/09/13 07:57:25;;;;;;;4.07;0.77;;;;;;;;;;2072462;28;20022;-70
2021/09/13 07:58:44;;;;;;;4.93;0.70;;;;;;;;;;2074729;28;20049;-70